Terminal Aerodrome Forecast
Issued by NWS

Home | Current Version | Previous Version | Text Only | Print | Product List | Glossary On
Versions: 1 2 3 4 5 6 7 8 9 10 11 12 13 14 15 16
000
FTUS42 KFFC 291140
TAFPDK
TAF
KPDK 291140Z 2912/3012 13005KT P6SM VCSH BKN020
     FM291600 14007KT 6SM -SHRA BKN020
      TEMPO 2919/2923 5SM TSRA BKN015CB
     FM300000 13004KT 4SM -RA BKN007=

USA.gov is the U.S. government's official web portal to all federal, state and local government web resources and services.